sensor_id;sensor_type;location;lat;lon;timestamp;temperature;humidity
4828;DHT22;2428;48.732;9.148;2023-07-08T00:00:49;22.40;64.80
4828;DHT22;2428;48.732;9.148;2023-07-08T00:03:16;22.30;65.00
4828;DHT22;2428;48.732;9.148;2023-07-08T00:05:42;22.30;65.40
4828;DHT22;2428;48.732;9.148;2023-07-08T00:08:17;22.30;65.30
4828;DHT22;2428;48.732;9.148;2023-07-08T00:10:44;22.20;65.80
4828;DHT22;2428;48.732;9.148;2023-07-08T00:13:10;22.10;66.40
4828;DHT22;2428;48.732;9.148;2023-07-08T00:15:37;22.10;66.70
4828;DHT22;2428;48.732;9.148;2023-07-08T00:18:14;22.00;66.40
4828;DHT22;2428;48.732;9.148;2023-07-08T00:20:46;21.90;66.60
4828;DHT22;2428;48.732;9.148;2023-07-08T00:23:12;21.80;66.70
4828;DHT22;2428;48.732;9.148;2023-07-08T00:25:38;21.80;67.10
4828;DHT22;2428;48.732;9.148;2023-07-08T00:28:09;21.80;71.10
4828;DHT22;2428;48.732;9.148;2023-07-08T00:30:34;21.80;73.20
4828;DHT22;2428;48.732;9.148;2023-07-08T00:33:00;21.70;73.50
4828;DHT22;2428;48.732;9.148;2023-07-08T00:37:54;21.60;73.40
4828;DHT22;2428;48.732;9.148;2023-07-08T00:40:28;21.60;73.70
4828;DHT22;2428;48.732;9.148;2023-07-08T00:42:54;21.60;71.30
4828;DHT22;2428;48.732;9.148;2023-07-08T00:48:22;21.50;75.80
4828;DHT22;2428;48.732;9.148;2023-07-08T00:50:50;21.50;73.00
4828;DHT22;2428;48.732;9.148;2023-07-08T00:53:22;21.40;74.60
4828;DHT22;2428;48.732;9.148;2023-07-08T00:55:48;21.30;77.70
4828;DHT22;2428;48.732;9.148;2023-07-08T00:58:17;21.30;79.90
4828;DHT22;2428;48.732;9.148;2023-07-08T01:00:44;21.20;78.50
4828;DHT22;2428;48.732;9.148;2023-07-08T01:03:09;21.20;79.70
4828;DHT22;2428;48.732;9.148;2023-07-08T01:05:37;21.00;78.70
4828;DHT22;2428;48.732;9.148;2023-07-08T01:08:05;20.90;79.10
4828;DHT22;2428;48.732;9.148;2023-07-08T01:10:41;20.80;81.50
4828;DHT22;2428;48.732;9.148;2023-07-08T01:13:09;20.80;83.70
4828;DHT22;2428;48.732;9.148;2023-07-08T01:15:41;20.70;82.80
4828;DHT22;2428;48.732;9.148;2023-07-08T01:18:09;20.70;84.30
4828;DHT22;2428;48.732;9.148;2023-07-08T01:20:35;20.60;83.20
4828;DHT22;2428;48.732;9.148;2023-07-08T01:23:01;20.50;84.30
4828;DHT22;2428;48.732;9.148;2023-07-08T01:25:27;20.50;82.70
4828;DHT22;2428;48.732;9.148;2023-07-08T01:27:54;20.50;85.80
4828;DHT22;2428;48.732;9.148;2023-07-08T01:30:21;20.40;85.50
4828;DHT22;2428;48.732;9.148;2023-07-08T01:32:54;20.40;86.70
4828;DHT22;2428;48.732;9.148;2023-07-08T01:35:21;20.30;82.70
4828;DHT22;2428;48.732;9.148;2023-07-08T01:37:54;20.30;86.70
4828;DHT22;2428;48.732;9.148;2023-07-08T01:40:32;20.30;86.80
4828;DHT22;2428;48.732;9.148;2023-07-08T01:42:59;20.30;89.00
4828;DHT22;2428;48.732;9.148;2023-07-08T01:45:27;20.30;89.90
4828;DHT22;2428;48.732;9.148;2023-07-08T01:47:59;20.20;89.50
4828;DHT22;2428;48.732;9.148;2023-07-08T01:50:27;20.30;90.00
4828;DHT22;2428;48.732;9.148;2023-07-08T01:52:56;20.20;89.60
4828;DHT22;2428;48.732;9.148;2023-07-08T01:55:26;20.10;89.60
4828;DHT22;2428;48.732;9.148;2023-07-08T01:57:54;20.10;90.00
4828;DHT22;2428;48.732;9.148;2023-07-08T02:00:21;20.00;89.60
4828;DHT22;2428;48.732;9.148;2023-07-08T02:02:47;19.90;90.70
4828;DHT22;2428;48.732;9.148;2023-07-08T02:05:13;19.90;90.50
4828;DHT22;2428;48.732;9.148;2023-07-08T02:07:38;19.80;91.00
4828;DHT22;2428;48.732;9.148;2023-07-08T02:10:05;19.80;91.00
4828;DHT22;2428;48.732;9.148;2023-07-08T02:12:30;19.80;91.20
4828;DHT22;2428;48.732;9.148;2023-07-08T02:14:56;19.70;91.20
4828;DHT22;2428;48.732;9.148;2023-07-08T02:17:21;19.70;91.70
4828;DHT22;2428;48.732;9.148;2023-07-08T02:19:47;19.60;91.90
4828;DHT22;2428;48.732;9.148;2023-07-08T02:22:12;19.60;91.50
4828;DHT22;2428;48.732;9.148;2023-07-08T02:24:38;19.60;90.90
4828;DHT22;2428;48.732;9.148;2023-07-08T02:27:03;19.50;92.40
4828;DHT22;2428;48.732;9.148;2023-07-08T02:29:30;19.50;92.30
4828;DHT22;2428;48.732;9.148;2023-07-08T02:31:57;19.50;92.20
4828;DHT22;2428;48.732;9.148;2023-07-08T02:34:23;19.50;92.30
4828;DHT22;2428;48.732;9.148;2023-07-08T02:36:48;19.50;92.30
4828;DHT22;2428;48.732;9.148;2023-07-08T02:39:14;19.60;92.40
4828;DHT22;2428;48.732;9.148;2023-07-08T02:41:39;19.50;93.30
4828;DHT22;2428;48.732;9.148;2023-07-08T02:44:05;19.50;93.90
4828;DHT22;2428;48.732;9.148;2023-07-08T02:46:30;19.40;93.30
4828;DHT22;2428;48.732;9.148;2023-07-08T02:48:56;19.40;93.70
4828;DHT22;2428;48.732;9.148;2023-07-08T02:51:22;19.50;94.90
4828;DHT22;2428;48.732;9.148;2023-07-08T02:53:49;19.50;94.10
4828;DHT22;2428;48.732;9.148;2023-07-08T02:56:15;19.50;92.90
4828;DHT22;2428;48.732;9.148;2023-07-08T02:58:41;19.50;94.50
4828;DHT22;2428;48.732;9.148;2023-07-08T03:01:07;19.60;91.80
4828;DHT22;2428;48.732;9.148;2023-07-08T03:03:33;19.60;92.70
4828;DHT22;2428;48.732;9.148;2023-07-08T03:06:02;19.60;93.30
4828;DHT22;2428;48.732;9.148;2023-07-08T03:08:29;19.70;93.20
4828;DHT22;2428;48.732;9.148;2023-07-08T03:11:03;19.70;90.20
4828;DHT22;2428;48.732;9.148;2023-07-08T03:13:29;19.70;89.10
4828;DHT22;2428;48.732;9.148;2023-07-08T03:15:55;19.70;90.40
4828;DHT22;2428;48.732;9.148;2023-07-08T03:18:22;19.70;92.10
4828;DHT22;2428;48.732;9.148;2023-07-08T03:20:49;19.70;93.00
4828;DHT22;2428;48.732;9.148;2023-07-08T03:23:15;19.70;92.00
4828;DHT22;2428;48.732;9.148;2023-07-08T03:25:41;19.80;92.00
4828;DHT22;2428;48.732;9.148;2023-07-08T03:28:07;19.70;93.00
4828;DHT22;2428;48.732;9.148;2023-07-08T03:30:33;19.70;93.30
4828;DHT22;2428;48.732;9.148;2023-07-08T03:32:59;19.70;92.80
4828;DHT22;2428;48.732;9.148;2023-07-08T03:35:25;19.70;93.10
4828;DHT22;2428;48.732;9.148;2023-07-08T03:37:52;19.70;94.80
4828;DHT22;2428;48.732;9.148;2023-07-08T03:40:18;19.70;94.00
4828;DHT22;2428;48.732;9.148;2023-07-08T03:42:44;19.60;93.60
4828;DHT22;2428;48.732;9.148;2023-07-08T03:45:09;19.60;93.00
4828;DHT22;2428;48.732;9.148;2023-07-08T03:47:35;19.60;94.80
4828;DHT22;2428;48.732;9.148;2023-07-08T03:50:01;19.60;93.60
4828;DHT22;2428;48.732;9.148;2023-07-08T03:52:26;19.60;94.30
4828;DHT22;2428;48.732;9.148;2023-07-08T03:54:52;19.60;92.40
4828;DHT22;2428;48.732;9.148;2023-07-08T03:57:17;19.60;92.40
4828;DHT22;2428;48.732;9.148;2023-07-08T03:59:43;19.70;94.00
4828;DHT22;2428;48.732;9.148;2023-07-08T04:02:10;19.70;93.80
4828;DHT22;2428;48.732;9.148;2023-07-08T04:04:37;19.70;94.00
4828;DHT22;2428;48.732;9.148;2023-07-08T04:07:04;19.60;93.90
4828;DHT22;2428;48.732;9.148;2023-07-08T04:09:29;19.60;94.40
4828;DHT22;2428;48.732;9.148;2023-07-08T04:11:55;19.60;94.20
4828;DHT22;2428;48.732;9.148;2023-07-08T04:14:21;19.60;95.10
4828;DHT22;2428;48.732;9.148;2023-07-08T04:16:56;19.60;95.60
4828;DHT22;2428;48.732;9.148;2023-07-08T04:19:23;19.60;95.60
4828;DHT22;2428;48.732;9.148;2023-07-08T04:21:49;19.80;96.20
4828;DHT22;2428;48.732;9.148;2023-07-08T04:24:16;19.70;96.30
4828;DHT22;2428;48.732;9.148;2023-07-08T04:26:42;19.80;98.50
4828;DHT22;2428;48.732;9.148;2023-07-08T04:29:13;19.90;98.20
4828;DHT22;2428;48.732;9.148;2023-07-08T04:31:38;19.90;97.40
4828;DHT22;2428;48.732;9.148;2023-07-08T04:34:04;20.00;99.10
4828;DHT22;2428;48.732;9.148;2023-07-08T04:36:31;20.00;99.40
4828;DHT22;2428;48.732;9.148;2023-07-08T04:38:57;20.10;99.80
4828;DHT22;2428;48.732;9.148;2023-07-08T04:41:23;20.10;94.10
4828;DHT22;2428;48.732;9.148;2023-07-08T04:43:51;20.20;95.80
4828;DHT22;2428;48.732;9.148;2023-07-08T04:46:49;20.20;94.20
4828;DHT22;2428;48.732;9.148;2023-07-08T04:49:16;20.40;94.00
4828;DHT22;2428;48.732;9.148;2023-07-08T04:51:42;20.40;92.30
4828;DHT22;2428;48.732;9.148;2023-07-08T04:54:08;20.50;95.10
4828;DHT22;2428;48.732;9.148;2023-07-08T04:56:42;20.70;93.30
4828;DHT22;2428;48.732;9.148;2023-07-08T04:59:09;20.60;95.40
4828;DHT22;2428;48.732;9.148;2023-07-08T05:01:36;20.70;93.10
4828;DHT22;2428;48.732;9.148;2023-07-08T05:04:02;20.70;97.50
4828;DHT22;2428;48.732;9.148;2023-07-08T05:06:28;20.70;93.20
4828;DHT22;2428;48.732;9.148;2023-07-08T05:08:53;20.70;93.30
4828;DHT22;2428;48.732;9.148;2023-07-08T05:11:19;20.70;92.80
4828;DHT22;2428;48.732;9.148;2023-07-08T05:13:45;20.80;94.40
4828;DHT22;2428;48.732;9.148;2023-07-08T05:16:10;20.80;92.40
4828;DHT22;2428;48.732;9.148;2023-07-08T05:18:36;20.90;92.70
4828;DHT22;2428;48.732;9.148;2023-07-08T05:21:02;20.90;92.90
4828;DHT22;2428;48.732;9.148;2023-07-08T05:23:28;20.90;93.10
4828;DHT22;2428;48.732;9.148;2023-07-08T05:25:54;20.90;94.20
4828;DHT22;2428;48.732;9.148;2023-07-08T05:28:20;21.00;92.90
4828;DHT22;2428;48.732;9.148;2023-07-08T05:30:52;21.10;92.90
4828;DHT22;2428;48.732;9.148;2023-07-08T05:33:18;21.20;92.60
4828;DHT22;2428;48.732;9.148;2023-07-08T05:35:45;21.30;92.50
4828;DHT22;2428;48.732;9.148;2023-07-08T05:38:11;21.30;92.30
4828;DHT22;2428;48.732;9.148;2023-07-08T05:40:36;21.30;92.10
4828;DHT22;2428;48.732;9.148;2023-07-08T05:43:02;21.30;92.30
4828;DHT22;2428;48.732;9.148;2023-07-08T05:45:27;21.30;92.00
4828;DHT22;2428;48.732;9.148;2023-07-08T05:47:53;21.30;92.40
4828;DHT22;2428;48.732;9.148;2023-07-08T05:50:18;21.40;92.20
4828;DHT22;2428;48.732;9.148;2023-07-08T05:52:44;21.40;92.10
4828;DHT22;2428;48.732;9.148;2023-07-08T05:55:09;21.40;92.20
4828;DHT22;2428;48.732;9.148;2023-07-08T05:57:35;21.50;92.20
4828;DHT22;2428;48.732;9.148;2023-07-08T06:00:01;21.60;92.30
4828;DHT22;2428;48.732;9.148;2023-07-08T06:02:26;21.60;91.50
4828;DHT22;2428;48.732;9.148;2023-07-08T06:04:52;21.60;91.50
4828;DHT22;2428;48.732;9.148;2023-07-08T06:07:17;21.70;92.90
4828;DHT22;2428;48.732;9.148;2023-07-08T06:09:43;21.70;92.10
4828;DHT22;2428;48.732;9.148;2023-07-08T06:12:10;21.70;91.80
4828;DHT22;2428;48.732;9.148;2023-07-08T06:14:36;21.70;92.10
4828;DHT22;2428;48.732;9.148;2023-07-08T06:17:01;21.80;91.80
4828;DHT22;2428;48.732;9.148;2023-07-08T06:19:27;21.80;92.10
4828;DHT22;2428;48.732;9.148;2023-07-08T06:21:52;21.80;92.00
4828;DHT22;2428;48.732;9.148;2023-07-08T06:24:18;21.90;93.50
4828;DHT22;2428;48.732;9.148;2023-07-08T06:26:44;22.00;93.30
4828;DHT22;2428;48.732;9.148;2023-07-08T06:29:09;22.10;92.30
4828;DHT22;2428;48.732;9.148;2023-07-08T06:31:35;22.20;92.50
4828;DHT22;2428;48.732;9.148;2023-07-08T06:34:01;22.30;92.70
4828;DHT22;2428;48.732;9.148;2023-07-08T06:36:27;22.40;93.30
4828;DHT22;2428;48.732;9.148;2023-07-08T06:38:52;22.50;93.00
4828;DHT22;2428;48.732;9.148;2023-07-08T06:41:18;22.50;92.50
4828;DHT22;2428;48.732;9.148;2023-07-08T06:43:44;22.50;92.30
4828;DHT22;2428;48.732;9.148;2023-07-08T06:46:09;22.50;92.00
4828;DHT22;2428;48.732;9.148;2023-07-08T06:48:35;22.50;92.30
4828;DHT22;2428;48.732;9.148;2023-07-08T06:51:01;22.50;92.50
4828;DHT22;2428;48.732;9.148;2023-07-08T06:53:26;22.70;92.40
4828;DHT22;2428;48.732;9.148;2023-07-08T06:55:52;22.80;92.40
4828;DHT22;2428;48.732;9.148;2023-07-08T06:58:18;22.90;92.90
4828;DHT22;2428;48.732;9.148;2023-07-08T07:00:44;22.90;92.80
4828;DHT22;2428;48.732;9.148;2023-07-08T07:03:10;22.80;92.80
4828;DHT22;2428;48.732;9.148;2023-07-08T07:05:36;22.80;92.80
4828;DHT22;2428;48.732;9.148;2023-07-08T07:08:02;22.80;93.40
4828;DHT22;2428;48.732;9.148;2023-07-08T07:10:27;22.80;93.60
4828;DHT22;2428;48.732;9.148;2023-07-08T07:12:53;22.80;93.70
4828;DHT22;2428;48.732;9.148;2023-07-08T07:15:18;22.80;93.80
4828;DHT22;2428;48.732;9.148;2023-07-08T07:17:44;22.90;93.90
4828;DHT22;2428;48.732;9.148;2023-07-08T07:20:10;22.90;93.50
4828;DHT22;2428;48.732;9.148;2023-07-08T07:22:36;22.90;93.80
4828;DHT22;2428;48.732;9.148;2023-07-08T07:25:03;22.90;93.70
4828;DHT22;2428;48.732;9.148;2023-07-08T07:27:28;23.00;94.00
4828;DHT22;2428;48.732;9.148;2023-07-08T07:29:54;23.10;94.30
4828;DHT22;2428;48.732;9.148;2023-07-08T07:32:23;23.10;94.40
4828;DHT22;2428;48.732;9.148;2023-07-08T07:34:49;23.00;94.50
4828;DHT22;2428;48.732;9.148;2023-07-08T07:37:17;23.10;94.80
4828;DHT22;2428;48.732;9.148;2023-07-08T07:39:43;23.10;94.50
4828;DHT22;2428;48.732;9.148;2023-07-08T07:42:09;23.10;94.70
4828;DHT22;2428;48.732;9.148;2023-07-08T07:44:36;23.20;94.80
4828;DHT22;2428;48.732;9.148;2023-07-08T07:47:02;23.20;95.00
4828;DHT22;2428;48.732;9.148;2023-07-08T07:49:28;23.20;95.00
4828;DHT22;2428;48.732;9.148;2023-07-08T07:51:54;23.30;95.10
4828;DHT22;2428;48.732;9.148;2023-07-08T07:54:20;23.30;95.50
4828;DHT22;2428;48.732;9.148;2023-07-08T07:56:45;23.30;95.30
4828;DHT22;2428;48.732;9.148;2023-07-08T07:59:11;23.50;95.10
4828;DHT22;2428;48.732;9.148;2023-07-08T08:01:37;23.50;95.60
4828;DHT22;2428;48.732;9.148;2023-07-08T08:04:02;23.70;95.10
4828;DHT22;2428;48.732;9.148;2023-07-08T08:06:28;23.70;95.40
4828;DHT22;2428;48.732;9.148;2023-07-08T08:08:53;23.80;95.50
4828;DHT22;2428;48.732;9.148;2023-07-08T08:11:19;23.80;95.00
4828;DHT22;2428;48.732;9.148;2023-07-08T08:13:45;23.80;95.20
4828;DHT22;2428;48.732;9.148;2023-07-08T08:16:10;23.80;95.80
4828;DHT22;2428;48.732;9.148;2023-07-08T08:18:36;23.80;95.10
4828;DHT22;2428;48.732;9.148;2023-07-08T08:21:02;23.80;95.90
4828;DHT22;2428;48.732;9.148;2023-07-08T08:23:27;24.00;95.30
4828;DHT22;2428;48.732;9.148;2023-07-08T08:25:53;24.10;95.10
4828;DHT22;2428;48.732;9.148;2023-07-08T08:28:19;24.00;95.20
4828;DHT22;2428;48.732;9.148;2023-07-08T08:30:48;24.00;95.30
4828;DHT22;2428;48.732;9.148;2023-07-08T08:33:15;24.10;96.00
4828;DHT22;2428;48.732;9.148;2023-07-08T08:35:44;24.10;95.70
4828;DHT22;2428;48.732;9.148;2023-07-08T08:38:09;24.20;94.00
4828;DHT22;2428;48.732;9.148;2023-07-08T08:40:35;24.20;94.70
4828;DHT22;2428;48.732;9.148;2023-07-08T08:43:12;24.30;94.90
4828;DHT22;2428;48.732;9.148;2023-07-08T08:46:00;24.30;94.80
4828;DHT22;2428;48.732;9.148;2023-07-08T08:48:27;24.40;94.40
4828;DHT22;2428;48.732;9.148;2023-07-08T08:51:12;24.50;94.50
4828;DHT22;2428;48.732;9.148;2023-07-08T08:53:38;24.60;94.90
4828;DHT22;2428;48.732;9.148;2023-07-08T08:56:28;24.60;94.40
4828;DHT22;2428;48.732;9.148;2023-07-08T09:01:25;24.70;93.70
4828;DHT22;2428;48.732;9.148;2023-07-08T09:04:13;24.90;92.90
4828;DHT22;2428;48.732;9.148;2023-07-08T09:06:42;24.90;93.10
4828;DHT22;2428;48.732;9.148;2023-07-08T09:09:17;25.10;92.50
4828;DHT22;2428;48.732;9.148;2023-07-08T09:11:59;25.20;93.00
4828;DHT22;2428;48.732;9.148;2023-07-08T09:14:29;25.30;93.00
4828;DHT22;2428;48.732;9.148;2023-07-08T09:22:44;25.90;93.40
4828;DHT22;2428;48.732;9.148;2023-07-08T09:27:52;26.20;90.20
4828;DHT22;2428;48.732;9.148;2023-07-08T09:30:20;26.30;90.10
4828;DHT22;2428;48.732;9.148;2023-07-08T09:32:47;26.50;91.20
4828;DHT22;2428;48.732;9.148;2023-07-08T09:35:29;26.60;89.70
4828;DHT22;2428;48.732;9.148;2023-07-08T09:38:12;26.60;87.40
4828;DHT22;2428;48.732;9.148;2023-07-08T09:40:39;26.80;89.40
4828;DHT22;2428;48.732;9.148;2023-07-08T09:43:37;26.90;86.30
4828;DHT22;2428;48.732;9.148;2023-07-08T09:46:03;26.90;90.00
4828;DHT22;2428;48.732;9.148;2023-07-08T09:48:38;26.90;87.50
4828;DHT22;2428;48.732;9.148;2023-07-08T09:51:04;26.90;87.20
4828;DHT22;2428;48.732;9.148;2023-07-08T09:53:30;27.10;89.60
4828;DHT22;2428;48.732;9.148;2023-07-08T09:56:00;27.10;86.30
4828;DHT22;2428;48.732;9.148;2023-07-08T09:58:35;27.20;89.90
4828;DHT22;2428;48.732;9.148;2023-07-08T10:01:23;27.30;87.30
4828;DHT22;2428;48.732;9.148;2023-07-08T10:03:49;27.10;89.40
4828;DHT22;2428;48.732;9.148;2023-07-08T10:06:23;27.20;91.30
4828;DHT22;2428;48.732;9.148;2023-07-08T10:08:50;27.10;87.70
4828;DHT22;2428;48.732;9.148;2023-07-08T10:11:31;26.90;87.90
4828;DHT22;2428;48.732;9.148;2023-07-08T10:14:26;26.80;89.40
4828;DHT22;2428;48.732;9.148;2023-07-08T10:16:52;26.60;90.00
4828;DHT22;2428;48.732;9.148;2023-07-08T10:19:19;26.40;90.90
4828;DHT22;2428;48.732;9.148;2023-07-08T10:24:41;26.90;91.50
4828;DHT22;2428;48.732;9.148;2023-07-08T10:27:36;27.50;89.70
4828;DHT22;2428;48.732;9.148;2023-07-08T10:30:20;28.00;88.40
4828;DHT22;2428;48.732;9.148;2023-07-08T10:38:43;31.20;79.60
4828;DHT22;2428;48.732;9.148;2023-07-08T10:41:37;32.90;74.10
4828;DHT22;2428;48.732;9.148;2023-07-08T10:44:32;34.10;70.80
4828;DHT22;2428;48.732;9.148;2023-07-08T10:50:21;36.80;65.10
4828;DHT22;2428;48.732;9.148;2023-07-08T10:55:25;38.00;60.90
4828;DHT22;2428;48.732;9.148;2023-07-08T11:08:48;33.70;62.50
4828;DHT22;2428;48.732;9.148;2023-07-08T11:13:58;34.60;61.40
4828;DHT22;2428;48.732;9.148;2023-07-08T11:16:37;34.40;61.30
4828;DHT22;2428;48.732;9.148;2023-07-08T11:19:18;33.70;62.60
4828;DHT22;2428;48.732;9.148;2023-07-08T11:21:51;32.40;63.00
4828;DHT22;2428;48.732;9.148;2023-07-08T11:24:31;31.70;70.00
4828;DHT22;2428;48.732;9.148;2023-07-08T11:27:26;31.50;68.90
4828;DHT22;2428;48.732;9.148;2023-07-08T11:32:28;32.20;66.90
4828;DHT22;2428;48.732;9.148;2023-07-08T11:34:56;32.80;68.60
4828;DHT22;2428;48.732;9.148;2023-07-08T11:37:23;33.30;66.10
4828;DHT22;2428;48.732;9.148;2023-07-08T11:42:46;34.40;63.20
4828;DHT22;2428;48.732;9.148;2023-07-08T11:45:26;35.60;62.40
4828;DHT22;2428;48.732;9.148;2023-07-08T11:47:52;36.40;60.50
4828;DHT22;2428;48.732;9.148;2023-07-08T11:50:29;37.10;58.80
4828;DHT22;2428;48.732;9.148;2023-07-08T11:53:01;37.40;56.00
4828;DHT22;2428;48.732;9.148;2023-07-08T11:58:23;36.70;57.10
4828;DHT22;2428;48.732;9.148;2023-07-08T12:03:23;36.80;58.00
4828;DHT22;2428;48.732;9.148;2023-07-08T12:05:56;37.10;58.70
4828;DHT22;2428;48.732;9.148;2023-07-08T12:08:33;37.70;56.40
4828;DHT22;2428;48.732;9.148;2023-07-08T12:11:02;38.20;54.80
4828;DHT22;2428;48.732;9.148;2023-07-08T12:13:28;38.60;56.50
4828;DHT22;2428;48.732;9.148;2023-07-08T12:15:54;38.50;55.50
4828;DHT22;2428;48.732;9.148;2023-07-08T12:18:22;37.30;54.40
4828;DHT22;2428;48.732;9.148;2023-07-08T12:20:53;37.30;53.60
4828;DHT22;2428;48.732;9.148;2023-07-08T12:23:22;36.80;54.70
4828;DHT22;2428;48.732;9.148;2023-07-08T12:25:49;36.10;55.30
4828;DHT22;2428;48.732;9.148;2023-07-08T12:28:15;35.70;55.60
4828;DHT22;2428;48.732;9.148;2023-07-08T12:30:42;36.00;56.90
4828;DHT22;2428;48.732;9.148;2023-07-08T12:33:14;36.40;55.60
4828;DHT22;2428;48.732;9.148;2023-07-08T12:35:41;36.10;54.40
4828;DHT22;2428;48.732;9.148;2023-07-08T12:38:19;35.90;54.80
4828;DHT22;2428;48.732;9.148;2023-07-08T12:40:45;36.10;55.90
4828;DHT22;2428;48.732;9.148;2023-07-08T12:43:12;36.10;56.70
4828;DHT22;2428;48.732;9.148;2023-07-08T12:45:38;36.40;56.10
4828;DHT22;2428;48.732;9.148;2023-07-08T12:48:03;36.10;57.10
4828;DHT22;2428;48.732;9.148;2023-07-08T12:50:29;35.90;54.40
4828;DHT22;2428;48.732;9.148;2023-07-08T12:52:55;35.90;57.80
4828;DHT22;2428;48.732;9.148;2023-07-08T12:55:22;35.80;57.00
4828;DHT22;2428;48.732;9.148;2023-07-08T12:57:51;35.20;55.40
4828;DHT22;2428;48.732;9.148;2023-07-08T13:02:56;34.70;57.10
4828;DHT22;2428;48.732;9.148;2023-07-08T13:05:22;34.40;57.90
4828;DHT22;2428;48.732;9.148;2023-07-08T13:07:48;34.50;59.90
4828;DHT22;2428;48.732;9.148;2023-07-08T13:10:20;34.20;57.30
4828;DHT22;2428;48.732;9.148;2023-07-08T13:12:49;34.10;57.60
4828;DHT22;2428;48.732;9.148;2023-07-08T13:15:35;34.00;58.60
4828;DHT22;2428;48.732;9.148;2023-07-08T13:18:02;34.10;57.00
4828;DHT22;2428;48.732;9.148;2023-07-08T13:20:28;33.90;57.30
4828;DHT22;2428;48.732;9.148;2023-07-08T13:23:00;33.70;57.80
4828;DHT22;2428;48.732;9.148;2023-07-08T13:25:31;33.50;57.40
4828;DHT22;2428;48.732;9.148;2023-07-08T13:28:25;33.40;59.60
4828;DHT22;2428;48.732;9.148;2023-07-08T13:30:54;33.30;58.90
4828;DHT22;2428;48.732;9.148;2023-07-08T13:33:20;33.60;63.70
4828;DHT22;2428;48.732;9.148;2023-07-08T13:35:47;33.60;56.90
4828;DHT22;2428;48.732;9.148;2023-07-08T13:38:18;33.80;57.00
4828;DHT22;2428;48.732;9.148;2023-07-08T13:40:46;34.00;56.90
4828;DHT22;2428;48.732;9.148;2023-07-08T13:43:12;33.90;55.60
4828;DHT22;2428;48.732;9.148;2023-07-08T13:45:44;33.90;56.20
4828;DHT22;2428;48.732;9.148;2023-07-08T13:53:44;33.10;56.20
4828;DHT22;2428;48.732;9.148;2023-07-08T13:56:25;33.20;58.50
4828;DHT22;2428;48.732;9.148;2023-07-08T13:59:09;32.70;57.00
4828;DHT22;2428;48.732;9.148;2023-07-08T14:01:38;32.30;55.80
4828;DHT22;2428;48.732;9.148;2023-07-08T14:04:05;32.00;58.00
4828;DHT22;2428;48.732;9.148;2023-07-08T14:06:35;31.70;57.30
4828;DHT22;2428;48.732;9.148;2023-07-08T14:11:41;32.10;60.30
4828;DHT22;2428;48.732;9.148;2023-07-08T14:14:07;32.50;60.30
4828;DHT22;2428;48.732;9.148;2023-07-08T14:16:35;32.80;59.60
4828;DHT22;2428;48.732;9.148;2023-07-08T14:19:04;33.00;57.90
4828;DHT22;2428;48.732;9.148;2023-07-08T14:21:32;32.80;57.60
4828;DHT22;2428;48.732;9.148;2023-07-08T14:23:58;32.70;60.10
4828;DHT22;2428;48.732;9.148;2023-07-08T14:26:24;32.30;57.90
4828;DHT22;2428;48.732;9.148;2023-07-08T14:28:50;31.80;58.80
4828;DHT22;2428;48.732;9.148;2023-07-08T14:31:23;31.60;64.50
4828;DHT22;2428;48.732;9.148;2023-07-08T14:33:51;31.20;60.00
4828;DHT22;2428;48.732;9.148;2023-07-08T14:36:21;31.00;60.80
4828;DHT22;2428;48.732;9.148;2023-07-08T14:38:46;30.90;63.50
4828;DHT22;2428;48.732;9.148;2023-07-08T14:41:12;30.80;62.50
4828;DHT22;2428;48.732;9.148;2023-07-08T14:43:38;30.60;61.00
4828;DHT22;2428;48.732;9.148;2023-07-08T14:46:05;30.40;65.10
4828;DHT22;2428;48.732;9.148;2023-07-08T14:48:32;30.20;61.60
4828;DHT22;2428;48.732;9.148;2023-07-08T14:50:58;30.20;65.30
4828;DHT22;2428;48.732;9.148;2023-07-08T14:53:24;30.10;66.30
4828;DHT22;2428;48.732;9.148;2023-07-08T14:55:52;30.20;65.70
4828;DHT22;2428;48.732;9.148;2023-07-08T14:58:29;30.10;63.50
4828;DHT22;2428;48.732;9.148;2023-07-08T15:00:57;30.10;63.70
4828;DHT22;2428;48.732;9.148;2023-07-08T15:03:24;29.90;62.30
4828;DHT22;2428;48.732;9.148;2023-07-08T15:05:50;29.80;63.00
4828;DHT22;2428;48.732;9.148;2023-07-08T15:08:16;29.80;64.90
4828;DHT22;2428;48.732;9.148;2023-07-08T15:10:48;29.70;64.60
4828;DHT22;2428;48.732;9.148;2023-07-08T15:13:15;29.70;70.30
4828;DHT22;2428;48.732;9.148;2023-07-08T15:15:42;29.60;66.00
4828;DHT22;2428;48.732;9.148;2023-07-08T15:18:14;29.60;66.90
4828;DHT22;2428;48.732;9.148;2023-07-08T15:20:41;29.70;65.40
4828;DHT22;2428;48.732;9.148;2023-07-08T15:23:07;29.60;65.40
4828;DHT22;2428;48.732;9.148;2023-07-08T15:25:34;29.60;66.50
4828;DHT22;2428;48.732;9.148;2023-07-08T15:28:01;29.60;68.90
4828;DHT22;2428;48.732;9.148;2023-07-08T15:30:29;29.70;65.00
4828;DHT22;2428;48.732;9.148;2023-07-08T15:32:55;30.10;66.30
4828;DHT22;2428;48.732;9.148;2023-07-08T15:35:23;30.40;66.70
4828;DHT22;2428;48.732;9.148;2023-07-08T15:37:55;30.80;64.10
4828;DHT22;2428;48.732;9.148;2023-07-08T15:40:22;31.10;61.30
4828;DHT22;2428;48.732;9.148;2023-07-08T15:42:51;31.30;60.80
4828;DHT22;2428;48.732;9.148;2023-07-08T15:45:26;31.30;63.00
4828;DHT22;2428;48.732;9.148;2023-07-08T15:47:53;31.50;61.40
4828;DHT22;2428;48.732;9.148;2023-07-08T15:50:22;31.60;63.10
4828;DHT22;2428;48.732;9.148;2023-07-08T15:52:47;31.60;62.90
4828;DHT22;2428;48.732;9.148;2023-07-08T15:55:16;31.60;59.50
4828;DHT22;2428;48.732;9.148;2023-07-08T15:57:47;31.70;60.40
4828;DHT22;2428;48.732;9.148;2023-07-08T16:00:22;31.60;59.10
4828;DHT22;2428;48.732;9.148;2023-07-08T16:02:54;31.30;59.10
4828;DHT22;2428;48.732;9.148;2023-07-08T16:05:21;31.30;60.30
4828;DHT22;2428;48.732;9.148;2023-07-08T16:07:49;31.30;61.10
4828;DHT22;2428;48.732;9.148;2023-07-08T16:10:15;31.50;61.70
4828;DHT22;2428;48.732;9.148;2023-07-08T16:12:41;31.20;60.30
4828;DHT22;2428;48.732;9.148;2023-07-08T16:15:19;31.20;60.80
4828;DHT22;2428;48.732;9.148;2023-07-08T16:17:45;30.90;62.90
4828;DHT22;2428;48.732;9.148;2023-07-08T16:20:22;30.70;60.90
4828;DHT22;2428;48.732;9.148;2023-07-08T16:22:49;30.70;63.10
4828;DHT22;2428;48.732;9.148;2023-07-08T16:25:24;30.70;64.30
4828;DHT22;2428;48.732;9.148;2023-07-08T16:27:50;30.80;62.80
4828;DHT22;2428;48.732;9.148;2023-07-08T16:30:20;30.80;61.50
4828;DHT22;2428;48.732;9.148;2023-07-08T16:32:47;30.80;62.00
4828;DHT22;2428;48.732;9.148;2023-07-08T16:35:18;30.70;61.40
4828;DHT22;2428;48.732;9.148;2023-07-08T16:37:48;30.60;61.10
4828;DHT22;2428;48.732;9.148;2023-07-08T16:40:22;30.50;62.20
4828;DHT22;2428;48.732;9.148;2023-07-08T16:42:51;30.50;61.70
4828;DHT22;2428;48.732;9.148;2023-07-08T16:45:20;30.50;61.60
4828;DHT22;2428;48.732;9.148;2023-07-08T16:47:46;30.50;63.60
4828;DHT22;2428;48.732;9.148;2023-07-08T16:50:14;30.60;61.70
4828;DHT22;2428;48.732;9.148;2023-07-08T16:52:39;30.50;60.40
4828;DHT22;2428;48.732;9.148;2023-07-08T16:57:35;30.50;62.90
4828;DHT22;2428;48.732;9.148;2023-07-08T17:00:01;30.50;61.60
4828;DHT22;2428;48.732;9.148;2023-07-08T17:02:28;30.50;63.20
4828;DHT22;2428;48.732;9.148;2023-07-08T17:04:54;30.40;60.80
4828;DHT22;2428;48.732;9.148;2023-07-08T17:07:21;30.40;62.60
4828;DHT22;2428;48.732;9.148;2023-07-08T17:09:46;30.40;62.40
4828;DHT22;2428;48.732;9.148;2023-07-08T17:12:12;30.30;63.60
4828;DHT22;2428;48.732;9.148;2023-07-08T17:14:38;30.20;62.00
4828;DHT22;2428;48.732;9.148;2023-07-08T17:17:04;30.20;61.60
4828;DHT22;2428;48.732;9.148;2023-07-08T17:19:31;30.10;61.00